createdAt,value
2019-02-06T05:13:43.121Z,24.00
2019-02-06T05:16:37.866Z,24.00
2019-02-06T05:19:32.813Z,24.10
2019-02-06T05:22:28.064Z,24.20
2019-02-06T05:25:22.693Z,24.30
2019-02-06T05:28:18.220Z,24.50
2019-02-06T05:31:12.840Z,24.60
2019-02-06T05:34:07.412Z,24.70
2019-02-06T05:37:02.036Z,24.80
2019-02-06T05:39:56.649Z,24.90
2019-02-06T05:42:52.823Z,24.90
2019-02-06T05:45:47.441Z,25.00
2019-02-06T05:48:43.159Z,25.00
2019-02-06T05:51:38.198Z,25.10
2019-02-06T05:54:32.522Z,25.10
2019-02-06T05:57:27.093Z,25.20
2019-02-06T06:00:27.413Z,25.20
2019-02-06T14:57:01.861Z,23.80
2019-02-06T15:00:44.372Z,23.80
2019-02-06T15:04:39.387Z,23.90
2019-02-06T15:08:16.820Z,24.10
2019-02-06T15:11:30.554Z,24.30
2019-02-06T15:15:01.500Z,24.50
2019-02-06T15:18:32.562Z,24.60
2019-02-06T15:22:14.506Z,24.70
2019-02-06T15:25:46.860Z,24.80
2019-02-06T15:29:21.837Z,24.90
2019-02-06T15:33:22.152Z,24.90
2019-02-06T15:37:07.781Z,25.00
2019-02-06T15:40:40.849Z,25.10
2019-02-06T15:44:00.998Z,25.10
2019-02-06T15:48:05.397Z,25.20
2019-02-06T15:51:46.128Z,25.00
2019-02-06T15:55:41.386Z,24.30
2019-02-06T15:59:33.198Z,23.60
2019-02-06T16:03:58.194Z,23.00
2019-02-06T16:07:51.165Z,22.90
2019-02-06T16:11:41.692Z,23.10
2019-02-06T16:15:28.633Z,23.30
2019-02-06T16:18:50.835Z,23.50
2019-02-06T16:22:33.001Z,23.70
2019-02-06T16:26:14.548Z,23.70
2019-02-06T16:30:05.493Z,23.90
2019-02-06T16:33:37.298Z,24.10
2019-02-06T16:37:31.200Z,24.10
2019-02-06T16:41:06.736Z,24.20
2019-02-06T16:44:45.708Z,24.30
2019-02-06T16:48:20.240Z,24.40
2019-02-06T16:52:02.106Z,24.50
2019-02-06T16:55:51.348Z,24.60
2019-02-06T16:59:38.395Z,24.70
2019-02-06T17:03:20.436Z,24.70
2019-02-06T17:06:43.577Z,24.80
2019-02-06T17:10:09.518Z,24.90
2019-02-06T17:14:15.819Z,24.90
2019-02-06T17:18:14.702Z,25.00
2019-02-06T17:22:10.306Z,25.10
2019-02-06T17:25:53.312Z,25.20
2019-02-06T17:29:11.217Z,25.20
2019-02-06T17:32:37.580Z,25.20
2019-02-06T17:36:52.262Z,25.30
2019-02-06T17:40:15.848Z,25.30
2019-02-06T17:43:38.309Z,25.40
2019-02-06T17:47:14.104Z,25.40
2019-02-06T17:50:43.904Z,25.40
2019-02-06T17:54:06.411Z,25.40
2019-02-06T17:57:01.081Z,25.50
2019-02-06T17:59:56.105Z,25.50
2019-02-06T18:02:51.031Z,25.50
2019-02-06T18:05:46.024Z,25.50
2019-02-06T18:08:42.169Z,25.60
2019-02-06T18:11:36.513Z,25.60
2019-02-06T18:14:31.510Z,25.60
2019-02-06T18:17:26.427Z,25.60
2019-02-06T18:20:21.455Z,25.70
2019-02-06T18:23:16.340Z,25.70
2019-02-06T18:26:11.121Z,25.70
2019-02-06T18:29:05.938Z,25.70
2019-02-06T18:32:00.835Z,25.70
2019-02-06T18:34:55.661Z,25.80
2019-02-06T18:37:50.529Z,25.80
2019-02-06T18:40:45.638Z,25.80
2019-02-06T18:43:43.025Z,25.70
2019-02-06T18:46:37.829Z,25.80
2019-02-06T18:49:32.451Z,25.80
2019-02-06T18:52:26.817Z,25.80
2019-02-06T18:55:21.382Z,25.80
2019-02-06T18:58:16.440Z,25.80
2019-02-06T19:01:10.777Z,25.80
2019-02-06T19:04:11.254Z,25.80
2019-02-06T19:07:06.271Z,25.80
2019-02-06T19:10:01.014Z,25.80
2019-02-06T19:12:57.037Z,25.80
2019-02-06T19:15:56.466Z,25.80
2019-02-06T19:18:48.424Z,25.80
2019-02-06T19:21:43.508Z,25.80
2019-02-06T19:24:38.073Z,25.80
2019-02-06T19:27:33.369Z,25.80
2019-02-06T19:30:31.191Z,25.90
2019-02-06T19:33:25.996Z,25.90
2019-02-06T19:36:20.858Z,25.90
2019-02-06T19:39:15.252Z,25.90
2019-02-06T19:42:09.978Z,25.90
2019-02-06T19:45:05.482Z,25.90
2019-02-06T19:48:00.253Z,25.90
2019-02-06T19:50:55.228Z,25.90
2019-02-06T19:53:50.091Z,25.90
2019-02-06T19:56:44.846Z,25.90
2019-02-06T19:59:39.657Z,25.90
2019-02-06T20:02:34.185Z,25.90
2019-02-06T20:05:30.027Z,26.00
2019-02-06T20:08:24.916Z,26.00
2019-02-06T20:11:19.678Z,26.00
2019-02-06T20:14:14.498Z,26.00
2019-02-06T20:17:09.166Z,26.00
2019-02-06T20:20:04.207Z,26.00
2019-02-06T20:22:58.569Z,26.00
2019-02-06T20:25:53.463Z,26.00
2019-02-06T20:28:48.048Z,26.00
2019-02-06T20:31:42.945Z,26.00
2019-02-06T20:34:41.239Z,26.00
2019-02-06T20:37:35.965Z,26.10
2019-02-06T20:40:33.142Z,26.00
2019-02-06T20:43:27.863Z,26.10
2019-02-06T20:46:22.395Z,26.10
2019-02-06T20:49:17.032Z,26.10
2019-02-06T20:52:11.642Z,26.10
2019-02-06T20:55:07.032Z,26.10
2019-02-06T20:58:02.110Z,26.20
2019-02-06T21:00:56.638Z,26.10
2019-02-06T21:03:51.777Z,26.20
2019-02-06T21:06:46.057Z,26.20
2019-02-06T21:09:40.570Z,26.20
2019-02-06T21:12:35.189Z,26.20
2019-02-06T21:15:32.678Z,26.20
2019-02-06T21:18:25.800Z,26.10
2019-02-06T21:21:20.653Z,26.10
2019-02-06T21:24:15.176Z,26.10
2019-02-06T21:27:09.695Z,26.10
2019-02-06T21:30:05.262Z,26.10
2019-02-06T21:32:59.916Z,26.10
2019-02-06T21:35:55.364Z,26.10
2019-02-06T21:38:50.140Z,26.10
2019-02-06T21:41:44.668Z,26.10
2019-02-06T21:44:39.668Z,26.10
2019-02-06T21:47:34.619Z,26.10
2019-02-06T21:50:29.143Z,26.20
2019-02-06T21:53:24.245Z,26.20
2019-02-06T21:56:19.567Z,26.20
2019-02-06T21:59:14.500Z,26.20
2019-02-06T22:02:09.436Z,26.20
2019-02-06T22:05:03.963Z,26.20
2019-02-06T22:07:58.635Z,26.20
2019-02-06T22:10:53.179Z,26.20
2019-02-06T22:13:54.905Z,26.20
2019-02-06T22:16:44.385Z,26.20
2019-02-06T22:19:38.793Z,26.20
2019-02-06T22:22:33.647Z,26.20
2019-02-06T22:25:29.245Z,26.20
2019-02-06T22:28:23.926Z,26.20
2019-02-06T22:31:18.852Z,26.20
2019-02-06T22:34:13.357Z,26.20
